createdAt,value
2022-12-16T00:00:34.725Z,51.95
2022-12-16T00:03:01.921Z,54.85
2022-12-16T00:05:29.094Z,53.92
2022-12-16T00:07:55.751Z,55.10
2022-12-16T00:10:23.325Z,49.05
2022-12-16T00:12:49.692Z,54.28
2022-12-16T00:15:18.333Z,53.00
2022-12-16T00:17:44.666Z,63.25
2022-12-16T00:20:11.603Z,57.33
2022-12-16T00:22:38.005Z,55.75
2022-12-16T00:25:05.245Z,61.08
2022-12-16T00:27:31.577Z,55.50
2022-12-16T00:29:57.934Z,54.95
2022-12-16T00:32:24.387Z,54.40
2022-12-16T00:34:50.763Z,61.58
2022-12-16T00:37:18.170Z,57.80
2022-12-16T00:39:44.510Z,59.55
2022-12-16T00:42:10.863Z,63.83
2022-12-16T00:44:37.234Z,54.03
2022-12-16T00:47:03.631Z,53.60
2022-12-16T00:49:30.256Z,53.85
2022-12-16T00:51:56.643Z,54.65
2022-12-16T00:54:22.971Z,55.00
2022-12-16T00:56:49.295Z,56.17
2022-12-16T00:59:15.693Z,49.38
2022-12-16T01:01:42.186Z,54.90
2022-12-16T01:04:08.684Z,54.53
2022-12-16T01:06:35.138Z,55.08
2022-12-16T01:09:01.477Z,50.83
2022-12-16T01:11:27.801Z,55.05
2022-12-16T01:13:55.006Z,52.53
2022-12-16T01:16:21.776Z,50.50
2022-12-16T01:18:48.164Z,53.20
2022-12-16T01:21:15.562Z,53.35
2022-12-16T01:23:42.125Z,50.65
2022-12-16T01:26:14.382Z,53.53
2022-12-16T01:28:40.775Z,53.35
2022-12-16T01:31:07.212Z,53.45
2022-12-16T01:33:34.184Z,49.47
2022-12-16T01:36:04.279Z,50.67
2022-12-16T01:38:31.081Z,45.58
2022-12-16T01:40:57.463Z,46.22
2022-12-16T01:43:31.138Z,51.45
2022-12-16T01:46:06.954Z,47.13
2022-12-16T01:48:45.541Z,47.75
2022-12-16T01:51:18.509Z,47.58
2022-12-16T01:53:46.970Z,45.42
2022-12-16T01:56:17.232Z,47.53
2022-12-16T01:58:45.044Z,50.03
2022-12-16T02:01:12.414Z,49.30
2022-12-16T02:03:39.763Z,42.40
2022-12-16T02:06:06.990Z,46.60
2022-12-16T02:08:33.712Z,49.90
2022-12-16T02:11:28.887Z,43.08
2022-12-16T02:14:01.300Z,42.00
2022-12-16T02:16:47.764Z,41.45
2022-12-16T02:19:45.247Z,49.50
2022-12-16T02:22:14.657Z,37.60
2022-12-16T02:25:18.342Z,44.78
2022-12-16T02:28:19.008Z,51.58
2022-12-16T02:31:10.260Z,46.53
2022-12-16T02:34:21.812Z,42.65
2022-12-16T02:37:10.114Z,43.70
2022-12-16T02:39:39.421Z,47.17
2022-12-16T02:42:25.006Z,38.95
2022-12-16T02:45:01.959Z,45.25
2022-12-16T02:47:29.452Z,41.75
2022-12-16T02:49:56.026Z,40.35
2022-12-16T02:52:28.960Z,41.88
2022-12-16T02:54:59.773Z,40.55
2022-12-16T02:57:35.223Z,39.80
2022-12-16T03:00:14.210Z,39.17
2022-12-16T03:03:02.420Z,42.95
2022-12-16T03:06:02.256Z,40.42
2022-12-16T03:08:40.910Z,41.20
2022-12-16T03:11:08.245Z,44.63
2022-12-16T03:13:43.765Z,37.65
2022-12-16T03:16:13.993Z,43.38
2022-12-16T03:18:43.672Z,41.90
2022-12-16T03:21:12.366Z,41.08
2022-12-16T03:23:48.098Z,40.08
2022-12-16T03:26:24.833Z,46.85
2022-12-16T03:29:00.412Z,43.10
2022-12-16T03:31:38.655Z,47.05
2022-12-16T03:34:04.919Z,39.47
2022-12-16T03:36:35.176Z,38.33
2022-12-16T03:39:04.326Z,41.00
2022-12-16T03:41:33.320Z,46.03
2022-12-16T03:44:00.260Z,44.95
2022-12-16T03:46:26.865Z,44.25
2022-12-16T03:48:54.005Z,46.15
2022-12-16T03:51:20.690Z,45.40
2022-12-16T03:53:47.041Z,45.17
2022-12-16T03:56:13.757Z,43.42
2022-12-16T03:58:40.732Z,46.38
2022-12-16T04:01:10.606Z,43.28
2022-12-16T04:03:38.342Z,40.50
2022-12-16T04:06:05.643Z,42.55
2022-12-16T04:08:32.274Z,39.53
2022-12-16T04:11:17.553Z,40.15
2022-12-16T04:14:02.313Z,37.40
2022-12-16T04:16:48.509Z,40.97
2022-12-16T04:19:42.406Z,37.75
2022-12-16T04:22:33.364Z,38.42
2022-12-16T04:25:06.170Z,38.60
2022-12-16T04:27:32.562Z,38.78
2022-12-16T04:30:17.668Z,39.22
2022-12-16T04:33:02.438Z,31.92
2022-12-16T04:35:47.654Z,34.72
2022-12-16T04:38:32.968Z,35.35
2022-12-16T04:41:17.691Z,38.33
2022-12-16T04:44:02.970Z,35.58
2022-12-16T04:46:48.172Z,32.72
2022-12-16T04:49:33.044Z,38.58
2022-12-16T04:52:17.736Z,33.88
2022-12-16T04:55:02.610Z,43.25
2022-12-16T04:57:47.801Z,43.22
2022-12-16T05:00:33.008Z,40.22
2022-12-16T05:03:17.837Z,37.53
2022-12-16T05:06:02.497Z,34.17
2022-12-16T05:08:47.335Z,35.22
2022-12-16T05:11:32.545Z,33.85
2022-12-16T05:14:17.832Z,33.67
2022-12-16T05:17:02.955Z,33.25
2022-12-16T05:19:47.692Z,34.05
2022-12-16T05:22:32.952Z,43.92
2022-12-16T05:25:17.776Z,43.90
2022-12-16T05:28:02.610Z,38.55
2022-12-16T05:30:47.346Z,33.33
2022-12-16T05:33:32.977Z,38.60
2022-12-16T05:36:18.239Z,40.22
2022-12-16T05:39:03.056Z,38.13
2022-12-16T05:41:47.810Z,36.20
2022-12-16T05:44:32.681Z,37.55
2022-12-16T05:47:17.594Z,35.90
2022-12-16T05:50:02.422Z,37.08
2022-12-16T05:52:47.165Z,36.30
2022-12-16T05:55:34.258Z,33.85
2022-12-16T05:58:19.683Z,35.15
2022-12-16T06:01:06.357Z,36.17
2022-12-16T06:03:51.807Z,38.03
2022-12-16T06:06:37.052Z,36.53
2022-12-16T06:09:22.261Z,35.10
2022-12-16T06:12:08.542Z,39.53
2022-12-16T06:14:53.216Z,31.60
2022-12-16T06:17:39.961Z,32.28
2022-12-16T06:20:25.680Z,33.70
2022-12-16T06:23:11.317Z,37.67
2022-12-16T06:25:56.577Z,35.63
2022-12-16T06:28:45.758Z,35.15
2022-12-16T06:31:30.890Z,37.72
2022-12-16T06:34:15.661Z,34.90
2022-12-16T06:37:00.310Z,33.25
2022-12-16T06:39:47.589Z,32.97
2022-12-16T06:42:36.542Z,31.98
2022-12-16T06:45:21.670Z,29.95
2022-12-16T06:48:06.409Z,30.33
2022-12-16T06:50:54.966Z,33.72
2022-12-16T06:53:40.777Z,34.08
2022-12-16T06:56:26.038Z,35.88
2022-12-16T06:59:10.893Z,34.97
2022-12-16T07:01:55.584Z,36.17
2022-12-16T07:04:40.685Z,38.88
2022-12-16T07:07:25.309Z,32.92
2022-12-16T07:10:10.589Z,32.55
2022-12-16T07:12:55.397Z,34.13
2022-12-16T07:15:40.096Z,35.88
2022-12-16T07:18:24.831Z,30.10
2022-12-16T07:21:09.425Z,44.30
2022-12-16T07:23:54.266Z,36.58
2022-12-16T07:26:39.547Z,38.25
2022-12-16T07:29:24.576Z,35.78
2022-12-16T07:32:09.588Z,31.52
2022-12-16T07:34:55.918Z,32.80
2022-12-16T07:37:40.766Z,31.05
2022-12-16T07:40:26.042Z,33.17
2022-12-16T07:43:10.776Z,32.28
2022-12-16T07:45:55.507Z,31.48
2022-12-16T07:48:40.360Z,28.85
2022-12-16T07:51:25.112Z,25.52
2022-12-16T07:54:09.943Z,27.85
2022-12-16T07:56:54.982Z,28.50
2022-12-16T07:59:39.820Z,30.23
2022-12-16T08:02:28.265Z,27.20
2022-12-16T08:05:13.368Z,31.45
2022-12-16T08:07:59.665Z,31.08
2022-12-16T08:10:44.971Z,30.08
2022-12-16T08:13:30.204Z,32.20
2022-12-16T08:16:15.085Z,29.58
2022-12-16T08:18:59.879Z,25.63
2022-12-16T08:21:44.672Z,25.40
2022-12-16T08:24:29.429Z,36.35
2022-12-16T08:27:14.203Z,31.42
2022-12-16T08:30:05.629Z,32.97
2022-12-16T08:32:54.343Z,35.40
2022-12-16T08:35:56.259Z,35.15
2022-12-16T08:38:41.233Z,36.92
2022-12-16T08:41:25.839Z,42.42
2022-12-16T08:44:10.616Z,40.10
2022-12-16T08:46:55.264Z,57.08
2022-12-16T08:49:39.989Z,59.33
2022-12-16T08:52:25.290Z,57.25
2022-12-16T08:55:10.273Z,55.65
2022-12-16T08:57:55.201Z,48.97
2022-12-16T09:00:41.170Z,54.85
2022-12-16T09:03:25.956Z,61.88
2022-12-16T09:06:17.262Z,77.28
2022-12-16T09:09:02.003Z,62.40
2022-12-16T09:11:46.996Z,50.50
2022-12-16T09:14:31.721Z,59.95
2022-12-16T09:17:16.403Z,64.35
2022-12-16T09:20:20.858Z,61.45
2022-12-16T09:23:07.133Z,58.63
2022-12-16T09:25:52.030Z,49.70
2022-12-16T09:28:40.310Z,48.92
2022-12-16T09:31:25.073Z,55.95
2022-12-16T09:34:10.070Z,50.47
2022-12-16T09:36:54.837Z,50.03
2022-12-16T09:39:54.281Z,59.05
2022-12-16T09:42:59.476Z,54.58
2022-12-16T09:45:59.578Z,67.07
2022-12-16T09:48:48.980Z,65.60
2022-12-16T09:51:35.351Z,73.63
2022-12-16T09:54:21.417Z,84.55
2022-12-16T09:57:14.679Z,77.53
2022-12-16T10:00:03.905Z,81.72
2022-12-16T10:02:48.814Z,96.82
2022-12-16T10:05:42.977Z,85.53
2022-12-16T10:08:27.681Z,91.18
2022-12-16T10:11:35.824Z,93.55
2022-12-16T10:14:47.361Z,97.40
2022-12-16T10:17:41.253Z,88.47
2022-12-16T10:20:44.232Z,92.15
2022-12-16T10:23:41.272Z,97.35
2022-12-16T10:26:49.397Z,83.47
2022-12-16T10:29:39.898Z,107.95
2022-12-16T10:32:50.529Z,101.13
2022-12-16T10:36:10.989Z,89.95
2022-12-16T10:39:13.952Z,111.50
2022-12-16T10:42:01.920Z,94.18
2022-12-16T10:44:54.087Z,98.53
2022-12-16T10:47:40.951Z,97.22
2022-12-16T10:50:31.667Z,104.95
2022-12-16T10:53:22.644Z,95.80
2022-12-16T10:56:37.236Z,112.95
2022-12-16T10:59:24.390Z,116.90
2022-12-16T11:02:20.089Z,100.40
2022-12-16T11:05:06.480Z,98.97
2022-12-16T11:08:03.487Z,92.35
2022-12-16T11:11:00.495Z,96.13
2022-12-16T11:13:51.485Z,80.28
2022-12-16T11:16:38.207Z,77.68
2022-12-16T11:19:24.332Z,99.60
2022-12-16T11:22:09.112Z,95.03
2022-12-16T11:24:53.920Z,111.68
2022-12-16T11:27:44.320Z,99.40
2022-12-16T11:30:32.153Z,101.70
2022-12-16T11:33:35.077Z,108.28
2022-12-16T11:36:29.696Z,118.38
2022-12-16T11:39:15.330Z,133.98
2022-12-16T11:42:04.007Z,104.68
2022-12-16T11:44:54.428Z,122.30
2022-12-16T11:48:03.737Z,138.95
2022-12-16T11:50:52.536Z,136.68
2022-12-16T11:54:12.599Z,133.23
2022-12-16T11:57:02.930Z,113.18
2022-12-16T12:00:11.850Z,129.52
2022-12-16T12:03:07.211Z,131.93
2022-12-16T12:06:08.200Z,129.40
2022-12-16T12:09:19.563Z,150.07
2022-12-16T12:12:34.787Z,145.75
2022-12-16T12:15:36.030Z,130.68
2022-12-16T12:18:46.231Z,139.68
2022-12-16T12:21:43.154Z,156.32
2022-12-16T12:24:27.916Z,144.40
2022-12-16T12:27:33.743Z,124.80
2022-12-16T12:30:21.910Z,130.55
2022-12-16T12:33:34.427Z,115.53
2022-12-16T12:36:38.501Z,116.28
2022-12-16T12:39:35.462Z,103.28
2022-12-16T12:42:49.761Z,109.65
2022-12-16T12:45:41.925Z,108.50
2022-12-16T12:48:37.306Z,92.30
2022-12-16T12:51:39.616Z,83.93
2022-12-16T12:54:45.893Z,97.68
2022-12-16T12:57:36.072Z,91.03
2022-12-16T13:00:42.799Z,81.88
2022-12-16T13:03:34.708Z,95.75
2022-12-16T13:06:20.854Z,89.35
2022-12-16T13:09:08.598Z,96.93
2022-12-16T13:11:56.911Z,81.30
2022-12-16T13:14:51.317Z,89.80
2022-12-16T13:17:41.422Z,93.43
2022-12-16T13:20:54.460Z,98.70
2022-12-16T13:23:53.858Z,97.88
2022-12-16T13:26:43.729Z,94.57
2022-12-16T13:29:46.824Z,109.82
2022-12-16T13:32:41.402Z,103.72
2022-12-16T13:38:21.063Z,92.00
2022-12-16T13:41:23.631Z,105.20
2022-12-16T13:44:19.136Z,98.97
2022-12-16T13:47:06.514Z,114.15
2022-12-16T13:49:54.498Z,108.40
2022-12-16T13:53:08.857Z,101.55
2022-12-16T13:56:18.595Z,107.65
2022-12-16T13:59:07.372Z,118.15
2022-12-16T14:02:10.256Z,128.80
2022-12-16T14:04:58.603Z,118.13
2022-12-16T14:07:45.985Z,122.32
2022-12-16T14:10:43.960Z,113.20
2022-12-16T14:13:40.770Z,128.13
2022-12-16T14:16:40.316Z,105.75
2022-12-16T14:19:37.413Z,91.90
2022-12-16T14:22:32.197Z,99.78
2022-12-16T14:25:28.059Z,111.72
2022-12-16T14:28:26.568Z,122.55
2022-12-16T14:31:23.521Z,112.90
2022-12-16T14:34:12.450Z,135.00
2022-12-16T14:36:59.187Z,97.07
2022-12-16T14:39:50.082Z,107.32
2022-12-16T14:42:43.189Z,101.22
2022-12-16T14:45:53.998Z,105.80
2022-12-16T14:48:50.315Z,100.38
2022-12-16T14:51:41.548Z,84.93
2022-12-16T14:54:43.258Z,93.80
2022-12-16T14:57:37.420Z,103.70
2022-12-16T15:00:28.439Z,108.03
2022-12-16T15:03:39.265Z,132.25
2022-12-16T15:06:28.620Z,110.38
2022-12-16T15:09:21.233Z,103.28
2022-12-16T15:12:10.640Z,100.65
2022-12-16T15:14:59.522Z,88.20
2022-12-16T15:18:01.021Z,93.97
2022-12-16T15:20:49.247Z,96.03
2022-12-16T15:23:57.391Z,135.35
2022-12-16T15:26:44.768Z,101.38
2022-12-16T15:29:51.492Z,76.43
2022-12-16T15:32:54.439Z,82.63
2022-12-16T15:35:45.240Z,82.38
2022-12-16T15:38:51.497Z,92.55
2022-12-16T15:41:45.458Z,76.18
2022-12-16T15:44:38.766Z,93.85
2022-12-16T15:47:25.569Z,94.38
2022-12-16T15:50:10.984Z,92.00
2022-12-16T15:52:59.415Z,79.95
2022-12-16T15:55:46.347Z,81.22
2022-12-16T15:58:34.587Z,86.57
2022-12-16T16:01:20.008Z,77.22
2022-12-16T16:04:10.876Z,77.95
2022-12-16T16:06:56.148Z,80.63
2022-12-16T16:09:48.210Z,83.68
2022-12-16T16:12:35.609Z,76.30
2022-12-16T16:15:21.385Z,97.28
2022-12-16T16:18:12.555Z,76.82
2022-12-16T16:20:57.375Z,110.72
2022-12-16T16:23:42.170Z,79.13
2022-12-16T16:26:32.419Z,87.65
2022-12-16T16:29:17.704Z,94.85
2022-12-16T16:32:04.388Z,86.80
2022-12-16T16:34:49.717Z,95.30
2022-12-16T16:37:37.626Z,93.13
2022-12-16T16:40:47.254Z,97.63
2022-12-16T16:43:32.258Z,126.05
2022-12-16T16:46:17.949Z,104.40
2022-12-16T16:49:03.057Z,93.78
2022-12-16T16:51:48.290Z,88.63
2022-12-16T16:54:33.698Z,95.20
2022-12-16T16:57:20.047Z,91.82
2022-12-16T17:00:06.760Z,81.40
2022-12-16T17:02:51.740Z,91.32
2022-12-16T17:05:36.969Z,92.80
2022-12-16T17:08:21.774Z,95.10
2022-12-16T17:11:07.175Z,95.18
2022-12-16T17:13:51.944Z,90.82
2022-12-16T17:16:36.977Z,87.35
2022-12-16T17:19:24.975Z,88.53
2022-12-16T17:22:09.854Z,94.25
2022-12-16T17:24:55.173Z,89.80
2022-12-16T17:27:44.416Z,75.70
2022-12-16T17:30:43.331Z,78.05
2022-12-16T17:33:32.165Z,91.05
2022-12-16T17:36:17.269Z,76.97
2022-12-16T17:39:07.591Z,76.43
2022-12-16T17:41:56.879Z,83.90
2022-12-16T17:48:18.604Z,78.63
2022-12-16T17:51:03.620Z,82.55
2022-12-16T17:53:57.123Z,78.75
2022-12-16T17:57:01.467Z,88.72
2022-12-16T17:59:50.445Z,81.57
2022-12-16T18:02:38.330Z,78.72
2022-12-16T18:05:23.460Z,76.47
2022-12-16T18:08:08.381Z,76.22
2022-12-16T18:10:53.093Z,77.55
2022-12-16T18:13:37.927Z,79.20
2022-12-16T18:16:22.675Z,84.47
2022-12-16T18:19:10.505Z,79.95
2022-12-16T18:21:55.089Z,73.95
2022-12-16T18:24:45.121Z,71.15
2022-12-16T18:27:33.072Z,72.85
2022-12-16T18:30:17.853Z,78.53
2022-12-16T18:33:16.277Z,77.68
2022-12-16T18:36:01.027Z,78.05
2022-12-16T18:38:46.220Z,78.95
2022-12-16T18:41:36.988Z,82.75
2022-12-16T18:44:23.374Z,93.07
2022-12-16T18:47:08.861Z,88.03
2022-12-16T18:49:54.267Z,88.07
2022-12-16T18:52:39.265Z,82.25
2022-12-16T18:55:24.917Z,87.18
2022-12-16T18:58:21.014Z,88.07
2022-12-16T19:01:23.432Z,76.80
2022-12-16T19:04:08.523Z,81.82
2022-12-16T19:06:53.285Z,76.57
2022-12-16T19:09:38.198Z,83.40
2022-12-16T19:12:23.941Z,83.68
2022-12-16T19:15:08.679Z,77.32
2022-12-16T19:17:53.903Z,77.35
2022-12-16T19:20:40.243Z,71.88
2022-12-16T19:23:25.116Z,71.35
2022-12-16T19:26:16.960Z,76.70
2022-12-16T19:29:01.798Z,80.00
2022-12-16T19:31:46.956Z,70.65
2022-12-16T19:34:31.925Z,80.22
2022-12-16T19:37:16.749Z,81.70
2022-12-16T19:40:01.577Z,77.57
2022-12-16T19:42:46.459Z,81.63
2022-12-16T19:45:31.807Z,85.32
2022-12-16T19:48:23.812Z,89.85
2022-12-16T19:51:26.517Z,101.28
2022-12-16T19:54:11.341Z,78.38
2022-12-16T19:56:55.923Z,80.82
2022-12-16T19:59:40.843Z,70.90
2022-12-16T20:02:29.534Z,74.20
2022-12-16T20:05:14.853Z,70.43
2022-12-16T20:07:59.608Z,68.88
2022-12-16T20:10:44.309Z,71.25
2022-12-16T20:13:30.529Z,65.13
2022-12-16T20:16:27.349Z,63.33
2022-12-16T20:19:13.199Z,62.08
2022-12-16T20:22:05.825Z,75.63
2022-12-16T20:24:52.058Z,66.80
2022-12-16T20:27:36.800Z,60.97
2022-12-16T20:30:22.099Z,56.15
2022-12-16T20:33:06.955Z,60.90
2022-12-16T20:35:51.790Z,62.58
2022-12-16T20:38:36.405Z,66.55
2022-12-16T20:41:22.823Z,62.83
2022-12-16T20:44:09.198Z,69.45
2022-12-16T20:46:56.102Z,59.83
2022-12-16T20:49:42.116Z,59.72
2022-12-16T20:52:26.978Z,66.95
2022-12-16T20:55:11.731Z,65.53
2022-12-16T20:57:56.533Z,68.28
2022-12-16T21:00:41.677Z,65.88
2022-12-16T21:03:27.493Z,63.83
2022-12-16T21:06:12.542Z,62.47
2022-12-16T21:08:57.827Z,60.97
2022-12-16T21:11:42.652Z,56.83
2022-12-16T21:14:27.283Z,66.07
2022-12-16T21:17:12.093Z,64.28
2022-12-16T21:19:56.800Z,64.78
2022-12-16T21:22:41.507Z,58.35
2022-12-16T21:25:26.736Z,63.63
2022-12-16T21:28:16.094Z,61.53
2022-12-16T21:31:01.270Z,61.22
2022-12-16T21:33:46.363Z,63.78
2022-12-16T21:36:31.282Z,66.65
2022-12-16T21:39:15.902Z,65.95
2022-12-16T21:42:00.736Z,66.22
2022-12-16T21:44:45.703Z,64.05
2022-12-16T21:47:30.894Z,59.63
2022-12-16T21:50:15.668Z,67.43
2022-12-16T21:53:00.779Z,57.92
2022-12-16T21:55:45.610Z,61.55
2022-12-16T21:58:30.802Z,60.42
2022-12-16T22:01:17.129Z,64.80
2022-12-16T22:04:02.331Z,56.58
2022-12-16T22:06:49.087Z,80.18
2022-12-16T22:09:34.734Z,66.47
2022-12-16T22:12:26.801Z,65.35
2022-12-16T22:15:11.501Z,62.10
2022-12-16T22:17:58.604Z,57.88
2022-12-16T22:20:43.956Z,59.13
2022-12-16T22:23:28.649Z,55.25
2022-12-16T22:26:15.652Z,60.88
2022-12-16T22:29:00.791Z,60.35
2022-12-16T22:31:46.174Z,53.60
2022-12-16T22:34:31.529Z,57.55
2022-12-16T22:37:16.923Z,60.10
2022-12-16T22:40:01.632Z,52.47
2022-12-16T22:42:46.888Z,56.15
2022-12-16T22:45:31.902Z,59.40
2022-12-16T22:48:16.630Z,54.58
2022-12-16T22:51:01.349Z,56.50
2022-12-16T22:53:46.499Z,52.45
2022-12-16T22:56:31.662Z,60.58
2022-12-16T22:59:16.467Z,51.95
2022-12-16T23:02:01.187Z,55.38
2022-12-16T23:04:57.171Z,54.60
2022-12-16T23:07:41.986Z,59.10
2022-12-16T23:10:27.225Z,55.70
2022-12-16T23:13:12.187Z,54.42
2022-12-16T23:15:57.075Z,51.10
2022-12-16T23:18:41.790Z,58.90
2022-12-16T23:21:34.148Z,55.35
2022-12-16T23:24:18.981Z,52.33
2022-12-16T23:27:03.582Z,54.17
2022-12-16T23:29:48.254Z,56.25
2022-12-16T23:35:23.004Z,55.22
2022-12-16T23:38:07.979Z,56.08
2022-12-16T23:40:54.328Z,61.55
2022-12-16T23:43:40.577Z,59.03
2022-12-16T23:46:25.702Z,51.65
2022-12-16T23:49:10.524Z,56.90
2022-12-16T23:51:55.206Z,60.00
2022-12-16T23:54:41.537Z,59.63
2022-12-16T23:57:26.288Z,63.15
